createdAt,value
2023-04-20T00:01:44.593Z,22.50
2023-04-20T00:04:12.159Z,22.60
2023-04-20T00:06:39.311Z,22.40
2023-04-20T00:09:06.352Z,22.30
2023-04-20T00:11:34.022Z,22.30
2023-04-20T00:14:01.006Z,22.20
2023-04-20T00:16:28.292Z,22.10
2023-04-20T00:18:56.003Z,22.00
2023-04-20T00:21:24.330Z,21.90
2023-04-20T00:23:52.171Z,22.00
2023-04-20T00:26:20.189Z,22.00
2023-04-20T00:28:47.293Z,21.90
2023-04-20T00:31:14.310Z,21.90
2023-04-20T00:33:41.468Z,21.80
2023-04-20T00:36:09.001Z,21.80
2023-04-20T00:38:36.501Z,21.90
2023-04-20T00:41:03.577Z,22.10
2023-04-20T00:43:30.808Z,22.10
2023-04-20T00:45:58.058Z,22.20
2023-04-20T00:48:25.387Z,22.30
2023-04-20T00:50:52.964Z,22.20
2023-04-20T00:53:20.669Z,22.30
2023-04-20T00:55:48.141Z,22.20
2023-04-20T00:58:15.186Z,21.90
2023-04-20T01:00:42.323Z,22.30
2023-04-20T01:03:09.765Z,22.10
2023-04-20T01:05:37.059Z,21.90
2023-04-20T01:08:04.170Z,21.80
2023-04-20T01:10:31.776Z,21.90
2023-04-20T01:12:59.386Z,21.90
2023-04-20T01:15:28.907Z,22.10
2023-04-20T01:17:58.244Z,22.20
2023-04-20T01:20:25.663Z,22.10
2023-04-20T01:22:56.533Z,22.30
2023-04-20T01:25:23.608Z,22.70
2023-04-20T01:27:51.669Z,22.50
2023-04-20T01:30:18.792Z,22.50
2023-04-20T01:32:46.344Z,22.30
2023-04-20T01:35:13.830Z,22.10
2023-04-20T01:37:41.496Z,22.00
2023-04-20T01:40:13.065Z,21.90
2023-04-20T01:42:40.147Z,21.80
2023-04-20T01:45:07.927Z,21.80
2023-04-20T01:47:36.084Z,21.80
2023-04-20T01:50:03.274Z,22.00
2023-04-20T01:52:30.403Z,21.90
2023-04-20T01:54:57.433Z,22.00
2023-04-20T01:57:24.573Z,21.90
2023-04-20T01:59:51.702Z,21.80
2023-04-20T02:02:18.796Z,21.70
2023-04-20T02:04:45.856Z,21.70
2023-04-20T02:07:12.835Z,21.70
2023-04-20T02:09:40.037Z,21.80
2023-04-20T02:12:07.203Z,21.80
2023-04-20T02:14:34.214Z,21.70
2023-04-20T02:17:01.923Z,21.70
2023-04-20T02:19:29.189Z,21.80
2023-04-20T02:21:56.144Z,21.80
2023-04-20T02:24:23.115Z,21.80
2023-04-20T02:26:50.119Z,21.90
2023-04-20T02:29:17.677Z,21.70
2023-04-20T02:31:45.882Z,21.80
2023-04-20T02:34:12.964Z,21.80
2023-04-20T02:36:39.925Z,21.70
2023-04-20T02:39:06.961Z,21.70
2023-04-20T02:41:34.057Z,21.90
2023-04-20T02:44:01.132Z,22.10
2023-04-20T02:46:28.175Z,22.10
2023-04-20T02:48:56.138Z,22.40
2023-04-20T02:51:23.127Z,22.40
2023-04-20T02:53:50.136Z,22.30
2023-04-20T02:56:17.259Z,22.50
2023-04-20T02:58:44.512Z,22.20
2023-04-20T03:01:11.748Z,22.30
2023-04-20T03:03:38.956Z,22.20
2023-04-20T03:06:06.450Z,22.20
2023-04-20T03:08:33.417Z,22.10
2023-04-20T03:11:00.654Z,22.00
2023-04-20T03:13:27.625Z,21.90
2023-04-20T03:15:54.984Z,21.90
2023-04-20T03:18:22.317Z,21.70
2023-04-20T03:20:50.764Z,21.70
2023-04-20T03:23:17.781Z,21.80
2023-04-20T03:25:47.156Z,21.80
2023-04-20T03:28:14.452Z,21.70
2023-04-20T03:30:41.563Z,21.80
2023-04-20T03:33:09.213Z,21.90
2023-04-20T03:35:39.428Z,21.90
2023-04-20T03:38:06.802Z,21.80
2023-04-20T03:40:33.853Z,22.00
2023-04-20T03:43:01.025Z,22.00
2023-04-20T03:45:31.674Z,22.00
2023-04-20T03:47:58.984Z,22.30
2023-04-20T03:50:26.503Z,22.10
2023-04-20T03:52:53.657Z,22.30
2023-04-20T03:55:20.810Z,22.20
2023-04-20T03:57:49.116Z,22.50
2023-04-20T04:00:16.578Z,22.60
2023-04-20T04:02:43.916Z,22.40
2023-04-20T04:05:11.142Z,22.40
2023-04-20T04:07:38.173Z,22.30
2023-04-20T04:10:06.661Z,22.60
2023-04-20T04:12:33.666Z,22.80
2023-04-20T04:15:01.719Z,22.80
2023-04-20T04:17:28.788Z,22.80
2023-04-20T04:19:55.942Z,22.80
2023-04-20T04:22:22.915Z,22.60
2023-04-20T04:24:49.931Z,22.50
2023-04-20T04:27:18.774Z,22.40
2023-04-20T04:29:47.351Z,22.40
2023-04-20T04:32:14.836Z,22.50
2023-04-20T04:34:45.974Z,22.40
2023-04-20T04:37:13.152Z,22.50
2023-04-20T04:39:40.229Z,22.40
2023-04-20T04:42:07.297Z,22.60
2023-04-20T04:44:34.907Z,22.50
2023-04-20T04:47:03.633Z,22.60
2023-04-20T04:49:31.019Z,22.70
2023-04-20T04:51:58.049Z,22.40
2023-04-20T04:54:25.138Z,22.40
2023-04-20T04:56:52.199Z,22.30
2023-04-20T04:59:19.312Z,22.40
2023-04-20T05:01:46.456Z,22.20
2023-04-20T05:04:13.715Z,22.10
2023-04-20T05:06:40.767Z,22.20
2023-04-20T05:09:08.209Z,22.10
2023-04-20T05:11:35.352Z,22.10
2023-04-20T05:14:03.553Z,22.30
2023-04-20T05:16:30.693Z,22.10
2023-04-20T05:18:57.877Z,22.00
2023-04-20T05:21:24.993Z,21.90
2023-04-20T05:23:52.008Z,21.70
2023-04-20T05:26:19.005Z,21.70
2023-04-20T05:28:46.058Z,21.90
2023-04-20T05:31:13.044Z,21.70
2023-04-20T05:33:40.514Z,21.90
2023-04-20T05:36:10.676Z,21.80
2023-04-20T05:38:38.009Z,21.80
2023-04-20T05:41:05.158Z,21.90
2023-04-20T05:43:32.174Z,21.90
2023-04-20T05:45:59.413Z,22.30
2023-04-20T05:48:29.868Z,22.20
2023-04-20T05:50:57.679Z,23.10
2023-04-20T05:53:24.679Z,23.50
2023-04-20T05:55:52.090Z,23.40
2023-04-20T05:58:19.530Z,22.80
2023-04-20T06:00:46.661Z,22.30
2023-04-20T06:03:13.956Z,22.30
2023-04-20T06:05:41.207Z,22.10
2023-04-20T06:08:08.326Z,21.90
2023-04-20T06:10:35.528Z,21.70
2023-04-20T06:13:02.582Z,21.60
2023-04-20T06:15:29.645Z,21.50
2023-04-20T06:17:56.781Z,21.40
2023-04-20T06:20:24.279Z,21.50
2023-04-20T06:22:51.415Z,21.70
2023-04-20T06:25:18.416Z,21.60
2023-04-20T06:27:45.616Z,21.50
2023-04-20T06:30:15.744Z,21.40
2023-04-20T06:32:42.814Z,20.90
2023-04-20T06:35:10.023Z,21.20
2023-04-20T06:37:38.804Z,21.20
2023-04-20T06:40:09.738Z,21.10
2023-04-20T06:42:37.777Z,21.00
2023-04-20T06:45:08.335Z,20.90
2023-04-20T06:47:35.659Z,21.10
2023-04-20T06:50:05.214Z,21.00
2023-04-20T06:52:32.515Z,21.30
2023-04-20T06:55:00.557Z,21.10
2023-04-20T06:57:28.266Z,21.10
2023-04-20T06:59:55.347Z,21.20
2023-04-20T07:02:22.534Z,21.10
2023-04-20T07:04:49.637Z,20.90
2023-04-20T07:07:16.820Z,21.10
2023-04-20T07:09:44.029Z,20.80
2023-04-20T07:12:11.940Z,21.10
2023-04-20T07:14:39.105Z,21.10
2023-04-20T07:17:06.384Z,21.10
2023-04-20T07:19:33.468Z,21.20
2023-04-20T07:22:03.052Z,21.20
2023-04-20T07:24:30.089Z,21.40
2023-04-20T07:26:57.361Z,21.40
2023-04-20T07:29:24.387Z,21.30
2023-04-20T07:31:51.476Z,21.50
2023-04-20T07:34:19.491Z,21.60
2023-04-20T07:36:46.864Z,21.50
2023-04-20T07:39:15.917Z,21.80
2023-04-20T07:41:43.933Z,22.40
2023-04-20T07:44:12.764Z,22.30
2023-04-20T07:46:39.847Z,22.20
2023-04-20T07:49:06.910Z,22.10
2023-04-20T07:51:34.497Z,22.00
2023-04-20T07:54:01.738Z,21.80
2023-04-20T07:56:28.895Z,21.60
2023-04-20T07:58:55.953Z,21.70
2023-04-20T08:01:26.384Z,21.80
2023-04-20T08:03:55.980Z,22.10
2023-04-20T08:06:23.247Z,22.70
2023-04-20T08:08:50.309Z,22.60
2023-04-20T08:11:17.295Z,22.10
2023-04-20T08:13:44.338Z,21.90
2023-04-20T08:16:11.396Z,22.00
2023-04-20T08:18:39.988Z,21.60
2023-04-20T08:21:07.317Z,21.10
2023-04-20T08:23:34.429Z,20.50
2023-04-20T08:26:01.515Z,20.40
2023-04-20T08:28:33.799Z,19.60
2023-04-20T08:31:01.758Z,19.40
2023-04-20T08:33:28.818Z,18.60
2023-04-20T08:35:55.850Z,18.50
2023-04-20T08:38:33.843Z,18.20
2023-04-20T08:41:01.740Z,17.60
2023-04-20T08:43:29.120Z,16.80
2023-04-20T08:46:02.983Z,16.80
2023-04-20T08:48:36.582Z,16.80
2023-04-20T08:51:04.999Z,16.60
2023-04-20T08:53:33.314Z,16.20
2023-04-20T08:56:00.655Z,16.20
2023-04-20T08:58:35.669Z,15.70
2023-04-20T09:01:02.913Z,16.00
2023-04-20T09:03:41.701Z,17.10
2023-04-20T09:06:17.335Z,16.90
2023-04-20T09:08:48.659Z,16.60
2023-04-20T09:11:30.113Z,16.50
2023-04-20T09:14:02.586Z,16.40
2023-04-20T09:16:30.072Z,16.30
2023-04-20T09:18:58.042Z,16.30
2023-04-20T09:21:28.146Z,16.30
2023-04-20T09:24:00.964Z,16.00
2023-04-20T09:26:31.431Z,16.20
2023-04-20T09:28:58.569Z,15.80
2023-04-20T09:31:25.711Z,15.90
2023-04-20T09:34:00.669Z,15.60
2023-04-20T09:36:44.848Z,15.40
2023-04-20T09:39:19.578Z,16.60
2023-04-20T09:41:47.404Z,16.20
2023-04-20T09:44:17.187Z,16.20
2023-04-20T09:46:45.774Z,16.60
2023-04-20T09:49:14.254Z,16.10
2023-04-20T09:51:45.387Z,16.90
2023-04-20T09:54:13.601Z,16.60
2023-04-20T09:56:40.814Z,16.30
2023-04-20T09:59:08.536Z,16.60
2023-04-20T10:01:36.518Z,16.10
2023-04-20T10:04:14.853Z,16.30
2023-04-20T10:06:58.116Z,16.10
2023-04-20T10:09:26.702Z,17.40
2023-04-20T10:12:00.152Z,17.10
2023-04-20T10:14:27.195Z,16.90
2023-04-20T10:17:09.115Z,16.80
2023-04-20T10:19:46.984Z,16.10
2023-04-20T10:22:33.971Z,16.70
2023-04-20T10:25:02.503Z,16.70
2023-04-20T10:27:32.302Z,16.90
2023-04-20T10:30:10.608Z,16.20
2023-04-20T10:32:37.799Z,16.10
2023-04-20T10:35:10.751Z,16.30
2023-04-20T10:37:48.976Z,16.30
2023-04-20T10:40:16.249Z,16.00
2023-04-20T10:42:46.336Z,16.50
2023-04-20T10:45:13.780Z,15.90
2023-04-20T10:47:41.246Z,15.90
2023-04-20T10:50:13.858Z,15.80
2023-04-20T10:52:42.875Z,15.70
2023-04-20T10:55:38.977Z,15.30
2023-04-20T10:58:06.041Z,16.10
2023-04-20T11:00:33.034Z,16.20
2023-04-20T11:03:00.127Z,16.50
2023-04-20T11:05:28.128Z,17.00
2023-04-20T11:07:57.260Z,17.20
2023-04-20T11:10:41.723Z,18.40
2023-04-20T11:13:20.728Z,17.60
2023-04-20T11:15:47.861Z,18.70
2023-04-20T11:18:15.396Z,18.30
2023-04-20T11:20:54.789Z,18.20
2023-04-20T11:23:24.466Z,18.10
2023-04-20T11:25:52.992Z,17.90
2023-04-20T11:28:20.148Z,17.80
2023-04-20T11:30:47.708Z,18.10
2023-04-20T11:33:24.878Z,18.50
2023-04-20T11:35:52.234Z,19.10
2023-04-20T11:38:31.727Z,19.70
2023-04-20T11:41:04.719Z,20.10
2023-04-20T11:43:33.150Z,20.10
2023-04-20T11:46:03.008Z,20.10
2023-04-20T11:48:33.403Z,20.30
2023-04-20T11:51:00.709Z,20.00
2023-04-20T11:53:27.659Z,20.00
2023-04-20T11:55:56.824Z,20.40
2023-04-20T11:58:24.881Z,20.50
2023-04-20T12:00:51.848Z,20.90
2023-04-20T12:03:19.085Z,20.90
2023-04-20T12:05:46.239Z,21.00
2023-04-20T12:08:14.897Z,20.70
2023-04-20T12:10:41.990Z,20.80
2023-04-20T12:13:08.963Z,20.80
2023-04-20T12:15:36.031Z,21.00
2023-04-20T12:18:03.133Z,21.20
2023-04-20T12:20:30.219Z,21.40
2023-04-20T12:22:58.967Z,21.30
2023-04-20T12:25:26.276Z,21.40
2023-04-20T12:27:53.514Z,21.50
2023-04-20T12:30:20.516Z,21.60
2023-04-20T12:32:47.552Z,21.50
2023-04-20T12:35:14.656Z,21.50
2023-04-20T12:37:41.629Z,21.30
2023-04-20T12:40:09.824Z,20.80
2023-04-20T12:42:36.970Z,20.50
2023-04-20T12:45:04.222Z,20.50
2023-04-20T12:47:31.450Z,20.40
2023-04-20T12:49:58.538Z,20.20
2023-04-20T12:52:26.949Z,20.30
2023-04-20T12:54:53.923Z,20.20
2023-04-20T12:57:21.022Z,20.30
2023-04-20T12:59:48.810Z,20.30
2023-04-20T13:02:16.232Z,20.30
2023-04-20T13:04:43.438Z,20.40
2023-04-20T13:07:10.498Z,20.70
2023-04-20T13:09:37.683Z,20.20
2023-04-20T13:12:05.342Z,20.20
2023-04-20T13:14:32.603Z,20.30
2023-04-20T13:17:01.967Z,19.90
2023-04-20T13:19:30.767Z,20.40
2023-04-20T13:21:58.675Z,20.30
2023-04-20T13:24:26.330Z,20.30
2023-04-20T13:27:01.519Z,20.30
2023-04-20T13:29:28.553Z,19.90
2023-04-20T13:31:55.740Z,19.70
2023-04-20T13:34:23.026Z,19.30
2023-04-20T13:36:50.497Z,19.30
2023-04-20T13:39:19.573Z,19.40
2023-04-20T13:41:49.437Z,19.00
2023-04-20T13:44:16.627Z,18.70
2023-04-20T13:46:46.271Z,18.50
2023-04-20T13:49:13.886Z,18.50
2023-04-20T13:51:41.223Z,18.60
2023-04-20T13:54:08.550Z,18.60
2023-04-20T13:56:36.557Z,18.80
2023-04-20T13:59:04.293Z,18.80
2023-04-20T14:01:31.766Z,18.70
2023-04-20T14:03:59.098Z,18.90
2023-04-20T14:06:30.062Z,18.90
2023-04-20T14:08:57.068Z,18.60
2023-04-20T14:11:24.255Z,19.00
2023-04-20T14:13:52.069Z,19.40
2023-04-20T14:16:19.192Z,19.60
2023-04-20T14:18:46.809Z,19.50
2023-04-20T14:21:16.159Z,19.70
2023-04-20T14:23:43.144Z,19.70
2023-04-20T14:26:10.467Z,19.80
2023-04-20T14:28:37.554Z,20.00
2023-04-20T14:31:04.685Z,19.80
2023-04-20T14:33:33.470Z,19.70
2023-04-20T14:36:00.566Z,19.50
2023-04-20T14:38:27.632Z,19.40
2023-04-20T14:41:02.029Z,19.40
2023-04-20T14:43:32.382Z,19.20
2023-04-20T14:46:01.454Z,19.50
2023-04-20T14:48:28.858Z,19.40
2023-04-20T14:50:56.145Z,19.30
2023-04-20T14:53:23.478Z,18.80
2023-04-20T14:55:51.377Z,19.10
2023-04-20T14:58:19.863Z,19.10
2023-04-20T15:00:49.058Z,19.10
2023-04-20T15:03:17.761Z,19.20
2023-04-20T15:05:45.804Z,19.00
2023-04-20T15:08:13.496Z,19.00
2023-04-20T15:10:41.060Z,18.80
2023-04-20T15:13:08.269Z,18.70
2023-04-20T15:15:47.624Z,18.70
2023-04-20T15:18:17.530Z,18.70
2023-04-20T15:20:45.184Z,18.80
2023-04-20T15:23:13.226Z,19.30
2023-04-20T15:25:40.563Z,19.70
2023-04-20T15:28:09.074Z,19.90
2023-04-20T15:30:36.177Z,20.10
2023-04-20T15:33:05.269Z,20.40
2023-04-20T15:35:32.987Z,20.30
2023-04-20T15:38:00.228Z,21.00
2023-04-20T15:40:28.517Z,20.40
2023-04-20T15:42:58.818Z,20.40
2023-04-20T15:45:28.204Z,20.80
2023-04-20T15:47:56.097Z,21.10
2023-04-20T15:50:23.448Z,21.00
2023-04-20T15:52:52.816Z,20.90
2023-04-20T15:55:20.088Z,21.00
2023-04-20T15:57:47.156Z,21.00
2023-04-20T16:00:16.920Z,21.10
2023-04-20T16:02:44.065Z,21.40
2023-04-20T16:05:11.150Z,21.40
2023-04-20T16:07:38.196Z,21.60
2023-04-20T16:10:06.964Z,21.90
2023-04-20T16:12:34.035Z,21.60
2023-04-20T16:15:02.048Z,21.70
2023-04-20T16:17:29.229Z,21.40
2023-04-20T16:19:56.713Z,21.30
2023-04-20T16:22:23.712Z,21.90
2023-04-20T16:24:50.981Z,21.10
2023-04-20T16:27:20.112Z,20.90
2023-04-20T16:29:48.290Z,20.80
2023-04-20T16:32:15.292Z,21.00
2023-04-20T16:34:42.413Z,20.70
2023-04-20T16:37:10.734Z,20.60
2023-04-20T16:39:37.890Z,20.90
2023-04-20T16:42:05.017Z,20.90
2023-04-20T16:44:32.001Z,20.90
2023-04-20T16:46:59.235Z,21.30
2023-04-20T16:49:26.479Z,21.20
2023-04-20T16:51:53.486Z,21.00
2023-04-20T16:54:21.581Z,21.20
2023-04-20T16:56:48.898Z,21.00
2023-04-20T16:59:16.030Z,20.90
2023-04-20T17:01:43.108Z,21.00
2023-04-20T17:04:10.294Z,20.90
2023-04-20T17:06:38.811Z,20.70
2023-04-20T17:09:07.216Z,20.60
2023-04-20T17:11:36.324Z,20.90
2023-04-20T17:14:03.495Z,20.80
2023-04-20T17:16:30.596Z,21.00
2023-04-20T17:18:58.140Z,21.10
2023-04-20T17:21:28.267Z,20.90
2023-04-20T17:23:56.588Z,21.00
2023-04-20T17:26:25.062Z,20.70
2023-04-20T17:28:52.343Z,20.60
2023-04-20T17:31:19.465Z,20.50
2023-04-20T17:33:47.933Z,20.60
2023-04-20T17:36:14.856Z,20.60
2023-04-20T17:38:43.319Z,20.50
2023-04-20T17:41:10.637Z,20.60
2023-04-20T17:43:40.544Z,20.60
2023-04-20T17:46:08.217Z,20.70
2023-04-20T17:48:35.926Z,20.60
2023-04-20T17:51:03.165Z,20.80
2023-04-20T17:53:30.154Z,20.80
2023-04-20T17:55:57.189Z,20.90
2023-04-20T17:58:25.749Z,20.90
2023-04-20T18:00:52.693Z,20.90
2023-04-20T18:03:20.506Z,20.90
2023-04-20T18:05:48.525Z,20.90
2023-04-20T18:08:17.737Z,21.00
2023-04-20T18:10:46.394Z,21.00
2023-04-20T18:13:13.484Z,21.10
2023-04-20T18:15:40.680Z,21.10
2023-04-20T18:18:07.711Z,21.30
2023-04-20T18:20:34.993Z,21.40
2023-04-20T18:23:02.112Z,21.40
2023-04-20T18:25:29.144Z,21.40
2023-04-20T18:27:56.226Z,21.40
2023-04-20T18:30:23.382Z,21.40
2023-04-20T18:32:50.472Z,21.40
2023-04-20T18:35:19.525Z,21.50
2023-04-20T18:37:46.550Z,21.50
2023-04-20T18:40:15.488Z,21.60
2023-04-20T18:42:43.905Z,21.70
2023-04-20T18:45:13.213Z,21.80
2023-04-20T18:47:40.558Z,21.90
2023-04-20T18:50:07.963Z,21.80
2023-04-20T18:52:35.366Z,21.70
2023-04-20T18:55:02.347Z,21.70
2023-04-20T18:57:29.392Z,21.60
2023-04-20T18:59:56.645Z,21.60
2023-04-20T19:02:24.100Z,21.60
2023-04-20T19:04:51.585Z,21.50
2023-04-20T19:07:19.298Z,21.70
2023-04-20T19:09:46.431Z,21.60
2023-04-20T19:12:13.660Z,21.80
2023-04-20T19:14:40.724Z,21.90
2023-04-20T19:17:08.738Z,21.80
2023-04-20T19:19:36.510Z,21.80
2023-04-20T19:22:04.481Z,22.00
2023-04-20T19:24:34.645Z,21.90
2023-04-20T19:27:02.290Z,21.80
2023-04-20T19:29:29.615Z,21.90
2023-04-20T19:31:56.772Z,21.90
2023-04-20T19:34:23.969Z,22.00
2023-04-20T19:36:51.342Z,22.10
2023-04-20T19:39:18.346Z,22.10
2023-04-20T19:41:45.954Z,21.80
2023-04-20T19:44:14.478Z,22.40
2023-04-20T19:46:43.528Z,22.30
2023-04-20T19:49:10.738Z,22.20
2023-04-20T19:51:37.724Z,22.30
2023-04-20T19:54:05.453Z,22.40
2023-04-20T19:56:33.803Z,22.60
2023-04-20T19:59:01.069Z,22.70
2023-04-20T20:01:28.246Z,22.70
2023-04-20T20:03:55.792Z,22.60
2023-04-20T20:06:23.874Z,22.40
2023-04-20T20:08:51.625Z,22.30
2023-04-20T20:11:18.724Z,22.30
2023-04-20T20:13:45.730Z,22.50
2023-04-20T20:16:12.778Z,22.90
2023-04-20T20:18:39.827Z,22.60
2023-04-20T20:21:07.077Z,22.50
2023-04-20T20:23:36.847Z,22.30
2023-04-20T20:26:04.006Z,22.30
2023-04-20T20:28:31.010Z,22.40
2023-04-20T20:30:59.641Z,22.30
2023-04-20T20:33:26.895Z,22.20
2023-04-20T20:35:53.939Z,22.50
2023-04-20T20:38:21.120Z,22.50
2023-04-20T20:40:53.794Z,22.30
2023-04-20T20:43:21.809Z,22.30
2023-04-20T20:45:50.086Z,22.30
2023-04-20T20:48:17.334Z,22.40
2023-04-20T20:50:45.183Z,22.60
2023-04-20T20:53:12.512Z,22.60
2023-04-20T20:55:39.788Z,22.70
2023-04-20T20:58:06.779Z,22.70
2023-04-20T21:00:33.844Z,22.80
2023-04-20T21:03:01.116Z,22.80
2023-04-20T21:05:28.348Z,22.70
2023-04-20T21:07:55.487Z,22.50
2023-04-20T21:10:22.608Z,23.10
2023-04-20T21:12:51.743Z,22.60
2023-04-20T21:15:19.058Z,22.60
2023-04-20T21:17:46.177Z,22.70
2023-04-20T21:20:14.029Z,22.90
2023-04-20T21:22:41.100Z,22.70
2023-04-20T21:25:08.555Z,22.70
2023-04-20T21:27:35.901Z,22.40
2023-04-20T21:30:03.319Z,22.80
2023-04-20T21:32:30.333Z,22.80
2023-04-20T21:34:57.746Z,22.80
2023-04-20T21:37:25.049Z,22.60
2023-04-20T21:39:52.352Z,22.50
2023-04-20T21:42:21.581Z,22.30
2023-04-20T21:44:48.614Z,22.50
2023-04-20T21:47:15.728Z,22.50
2023-04-20T21:49:44.249Z,22.80
2023-04-20T21:52:11.277Z,22.90
2023-04-20T21:54:40.227Z,22.70
2023-04-20T21:57:07.636Z,22.70
2023-04-20T21:59:34.647Z,22.80
2023-04-20T22:02:01.823Z,22.80
2023-04-20T22:04:29.802Z,22.60
2023-04-20T22:06:58.712Z,22.70
2023-04-20T22:09:26.112Z,22.80
2023-04-20T22:11:53.837Z,22.60
2023-04-20T22:14:20.999Z,22.60
2023-04-20T22:16:48.133Z,22.50
2023-04-20T22:19:16.366Z,22.40
2023-04-20T22:21:44.026Z,22.70
2023-04-20T22:24:11.013Z,22.60
2023-04-20T22:26:38.130Z,22.30
2023-04-20T22:29:05.250Z,22.30
2023-04-20T22:31:32.496Z,22.30
2023-04-20T22:33:59.741Z,22.20
2023-04-20T22:36:26.817Z,22.20
2023-04-20T22:38:53.840Z,22.20
2023-04-20T22:41:20.978Z,22.30
2023-04-20T22:43:49.410Z,22.40
2023-04-20T22:46:16.476Z,22.30
2023-04-20T22:48:47.236Z,22.20
2023-04-20T22:51:18.374Z,22.50
2023-04-20T22:53:45.501Z,22.40
2023-04-20T22:56:12.567Z,22.30
2023-04-20T22:58:39.623Z,22.30
2023-04-20T23:01:06.826Z,22.90
2023-04-20T23:03:34.862Z,22.20
2023-04-20T23:06:02.221Z,22.40
2023-04-20T23:08:29.683Z,22.50
2023-04-20T23:10:56.828Z,22.30
2023-04-20T23:13:26.527Z,22.00
2023-04-20T23:15:54.233Z,21.80
2023-04-20T23:18:21.623Z,22.00
2023-04-20T23:20:48.625Z,22.00
2023-04-20T23:23:15.594Z,22.00
2023-04-20T23:25:42.761Z,22.00
2023-04-20T23:28:10.136Z,21.80
2023-04-20T23:30:37.224Z,22.00
2023-04-20T23:33:04.332Z,21.80
2023-04-20T23:35:31.446Z,21.50
2023-04-20T23:37:58.447Z,21.70
2023-04-20T23:40:25.651Z,21.70
2023-04-20T23:42:53.088Z,21.70
2023-04-20T23:45:20.316Z,21.60
2023-04-20T23:47:47.618Z,21.40
2023-04-20T23:50:15.308Z,21.20
2023-04-20T23:52:42.547Z,21.30
2023-04-20T23:55:10.554Z,21.30
2023-04-20T23:57:37.548Z,21.20
